YBLD weather

Brooklands Airport
Western Australia, Australia

Public forecast

Using degrees Celsius for public forecast. Weather courtesy of forecast.io.

METAR (pilot weather report)

Closest report is RAAF Base Pearce, 41.0 nm (75.9 km) WNW. Retrieved 2019/03/26 18:30 UTC (0 seconds ago):

YPEA 261830Z AUTO 11003KT 9999 // NCD 17/07 Q1014

TAF (pilot weather forecast)

Closest forecast is RAAF Base Pearce, 41.0 nm (75.9 km) WNW. Retrieved 2019/03/26 18:00 UTC (30 minutes ago):

TAF YPEA 261641Z 2618/2712 12003KT CAVOK FM270200 36005KT CAVOK FM270500 25008KT CAVOK